Edgewater Beach, MI

5:40 PM EST on December 04, 2016 (GMT -0500)
MesoWest | | Change Station

Elev 646 ft 45.76 °N, 84.73 °W | Updated 3 days ago

Overcast
Overcast
42 °F
Feels Like 38 °F
N
6
Wind Variable Wind from NW
Gusts 12.0 mph

Today
High -- | Low -- °F
--% Chance of Precip.
Yesterday
High -- | Low -- °F
Precip. -- in
Pressure 29.96 in
Visibility 2.0 miles
Clouds Overcast 500 ft
Windchill 38 °F
Dew Point 35 °F
Humidity 75%
Rainfall in
Snow Depth Not available.
8:03 AM 4:55 PM
Waxing Crescent, 26% visible
METAR KMCD 042215Z AUTO 16005KT 2SM -SN OVC005 00/00 A2996 RMK AO2 T00000000
Pressure 29.96 in
Visibility 2.0 miles
Clouds Overcast 500 ft
Windchill 38 °F
Dew Point 35 °F
Humidity 75%
Rainfall in
Snow Depth Not available.
8:03 AM 4:55 PM
Waxing Crescent, 26% visible
METAR KMCD 042215Z AUTO 16005KT 2SM -SN OVC005 00/00 A2996 RMK AO2 T00000000

10-Day Weather Forecast

Almanac

Astronomy

Dec. 04, 2016 Rise Set
Actual Time
Civil Twilight
Nautical Twilight
Astronomical Twilight
Moon
Length of Visible Light
Length of Day
Tomorrow will be .
, % of the Moon is Illuminated

Today's Extremes

State Highs State Lows

Community

WunderPhotos

Upload Photos

1,955,685 photos uploaded!

WunderBlog® & News

Nearby

Air Quality

  Air Quality AQ Index Pollutant
Not available.

Snow Depth

Station Depth Elevation

Earthquake Activity

City Distance Mag. Time & Date
Minimum magnitude displayed is 2.5.

Coastal Water Temperatures

Place Temperature

Stations

Nearby Weather Stations

Station Location Temp. Windchill Dew Point Humidity Wind Precip. Elev Updated Type
                   

Watches & Warnings

There are currently no watches in effect.